Aviation Digital Data Service (ADDS)

Output produced by METARs form (0523 UTC 27 November 2014)
found at http://www.aviationweather.gov/adds/metars/
 
METAR text: KSBP 270456Z AUTO 12003KT 10SM CLR 12/03 A3019 RMK AO2 SLP221 T01170028
Conditions at: KSBP (SAN LUIS OBISPO , CA, US) observed 0456 UTC 27 November 2014
Temperature: 11.7°C (53°F)
Dewpoint: 2.8°C (37°F) [RH = 54%]
Pressure (altimeter): 30.19 inches Hg (1022.4 mb)
[Sea-level pressure: 1022.1 mb]
Winds: from the ESE (120 degrees) at 3 MPH (3 knots; 1.6 m/s)
Visibility: 10 or more miles (16+ km)
Ceiling: at least 12,000 feet AGL
Clouds: sky clear below 12,000 feet AGL
Weather: automated observation with no human augmentation;
there may or may not be significant weather present at this time

METAR text: KSBP 270356Z 00000KT 10SM CLR 13/03 A3018 RMK AO2 SLP221 T01280028
Conditions at: KSBP (SAN LUIS OBISPO , CA, US) observed 0356 UTC 27 November 2014
Temperature: 12.8°C (55°F)
Dewpoint: 2.8°C (37°F) [RH = 51%]
Pressure (altimeter): 30.18 inches Hg (1022.1 mb)
[Sea-level pressure: 1022.1 mb]
Winds: calm
Visibility: 10 or more miles (16+ km)
Ceiling: at least 12,000 feet AGL
Clouds: sky clear below 12,000 feet AGL
Weather: no significant weather observed at this time

METAR text: KSBP 270256Z 13003KT 10SM CLR 14/02 A3017 RMK AO2 SLP217 T01440022 53005
Conditions at: KSBP (SAN LUIS OBISPO , CA, US) observed 0256 UTC 27 November 2014
Temperature: 14.4°C (58°F)
Dewpoint: 2.2°C (36°F) [RH = 44%]
Pressure (altimeter): 30.17 inches Hg (1021.8 mb)
[Sea-level pressure: 1021.7 mb]
Winds: from the SE (130 degrees) at 3 MPH (3 knots; 1.6 m/s)
Visibility: 10 or more miles (16+ km)
Ceiling: at least 12,000 feet AGL
Clouds: sky clear below 12,000 feet AGL
Weather: no significant weather observed at this time

METAR text: KSBP 270156Z 31004KT 10SM CLR 18/01 A3016 RMK AO2 SLP214 T01830011
Conditions at: KSBP (SAN LUIS OBISPO , CA, US) observed 0156 UTC 27 November 2014
Temperature: 18.3°C (65°F)
Dewpoint: 1.1°C (34°F) [RH = 31%]
Pressure (altimeter): 30.16 inches Hg (1021.4 mb)
[Sea-level pressure: 1021.4 mb]
Winds: from the NW (310 degrees) at 5 MPH (4 knots; 2.1 m/s)
Visibility: 10 or more miles (16+ km)
Ceiling: at least 12,000 feet AGL
Clouds: sky clear below 12,000 feet AGL
Weather: no significant weather observed at this time

METAR text: KSBP 270056Z 32009KT 10SM CLR 19/M01 A3016 RMK AO2 SLP212 T01941006
Conditions at: KSBP (SAN LUIS OBISPO , CA, US) observed 0056 UTC 27 November 2014
Temperature: 19.4°C (67°F)
Dewpoint: -0.6°C (31°F) [RH = 26%]
Pressure (altimeter): 30.16 inches Hg (1021.4 mb)
[Sea-level pressure: 1021.2 mb]
Winds: from the NW (320 degrees) at 10 MPH (9 knots; 4.7 m/s)
Visibility: 10 or more miles (16+ km)
Ceiling: at least 12,000 feet AGL
Clouds: sky clear below 12,000 feet AGL
Weather: no significant weather observed at this time

METAR text: KSBP 262356Z 32012KT 10SM CLR 23/01 A3016 RMK AO2 SLP210 T02330006 10300 20189 56006
Conditions at: KSBP (SAN LUIS OBISPO , CA, US) observed 2356 UTC 26 November 2014
Temperature: 23.3°C (74°F)
Dewpoint: 0.6°C (33°F) [RH = 22%]
Pressure (altimeter): 30.16 inches Hg (1021.4 mb)
[Sea-level pressure: 1021.0 mb]
Winds: from the NW (320 degrees) at 14 MPH (12 knots; 6.2 m/s)
Visibility: 10 or more miles (16+ km)
Ceiling: at least 12,000 feet AGL
Clouds: sky clear below 12,000 feet AGL
Weather: no significant weather observed at this time

METAR text: KSBP 262256Z 30005KT 10SM CLR 28/M01 A3016 RMK AO2 SLP210 T02831011
Conditions at: KSBP (SAN LUIS OBISPO , CA, US) observed 2256 UTC 26 November 2014
Temperature: 28.3°C (83°F)
Dewpoint: -1.1°C (30°F) [RH = 15%]
Pressure (altimeter): 30.16 inches Hg (1021.4 mb)
[Sea-level pressure: 1021.0 mb]
Winds: from the WNW (300 degrees) at 6 MPH (5 knots; 2.6 m/s)
Visibility: 10 or more miles (16+ km)
Ceiling: at least 12,000 feet AGL
Clouds: sky clear below 12,000 feet AGL
Weather: no significant weather observed at this time

METAR text: KSBP 262156Z 00000KT 10SM CLR 29/M03 A3016 RMK AO2 SLP210 T02941028
Conditions at: KSBP (SAN LUIS OBISPO , CA, US) observed 2156 UTC 26 November 2014
Temperature: 29.4°C (85°F)
Dewpoint: -2.8°C (27°F) [RH = 12%]
Pressure (altimeter): 30.16 inches Hg (1021.4 mb)
[Sea-level pressure: 1021.0 mb]
Winds: calm
Visibility: 10 or more miles (16+ km)
Ceiling: at least 12,000 feet AGL
Clouds: sky clear below 12,000 feet AGL
Weather: no significant weather observed at this time